createdAt,value
2022-09-20T06:15:00.539Z,1.23
2022-09-20T06:17:44.006Z,1.10
2022-09-20T06:20:31.569Z,2.28
2022-09-20T06:23:09.395Z,1.13
2022-09-20T06:25:54.070Z,1.60
2022-09-20T06:28:36.730Z,1.90
2022-09-20T06:31:17.399Z,1.43
2022-09-20T06:33:59.826Z,1.33
2022-09-20T06:36:51.844Z,1.30
2022-09-20T06:39:50.777Z,1.10
2022-09-20T06:42:27.767Z,1.30
2022-09-20T06:45:04.914Z,1.20
2022-09-20T06:47:44.207Z,1.10
2022-09-20T06:50:22.981Z,1.00
2022-09-20T06:52:59.619Z,1.43
2022-09-20T06:55:43.546Z,1.50
2022-09-20T06:58:20.189Z,1.63
2022-09-20T07:00:57.495Z,1.10
2022-09-20T07:03:37.541Z,1.20
2022-09-20T07:06:18.871Z,1.00
2022-09-20T07:08:55.641Z,1.20
2022-09-20T07:11:35.334Z,1.33
2022-09-20T07:14:12.082Z,1.23
2022-09-20T07:16:49.441Z,1.00
2022-09-20T07:19:29.053Z,1.27
2022-09-20T07:22:06.112Z,1.17
2022-09-20T07:24:45.282Z,1.00
2022-09-20T07:27:25.493Z,1.23
2022-09-20T07:30:04.421Z,1.07
2022-09-20T07:32:41.838Z,1.00
2022-09-20T07:35:21.307Z,1.10
2022-09-20T07:38:02.386Z,0.80
2022-09-20T07:40:39.252Z,0.80
2022-09-20T07:43:16.873Z,0.90
2022-09-20T07:45:56.310Z,1.07
2022-09-20T07:48:36.451Z,0.87
2022-09-20T07:51:17.191Z,1.23
2022-09-20T07:53:58.612Z,0.90
2022-09-20T07:56:35.692Z,0.63
2022-09-20T07:59:13.530Z,1.00
2022-09-20T08:01:50.319Z,1.20
2022-09-20T08:04:27.302Z,1.70
2022-09-20T08:07:06.730Z,0.95
2022-09-20T08:09:44.405Z,0.93
2022-09-20T08:15:21.004Z,0.90
2022-09-20T08:17:58.364Z,0.90
2022-09-20T08:20:38.423Z,0.90
2022-09-20T08:23:23.841Z,0.85
2022-09-20T08:26:03.101Z,0.80
2022-09-20T08:28:39.893Z,1.17
2022-09-20T08:31:20.081Z,0.65
2022-09-20T08:33:58.352Z,1.08
2022-09-20T08:36:38.480Z,1.10
2022-09-20T08:42:33.314Z,1.48
2022-09-20T08:45:34.280Z,0.60
2022-09-20T08:48:19.781Z,0.73
2022-09-20T08:53:33.712Z,1.13
2022-09-20T08:56:13.441Z,1.02
2022-09-20T08:58:51.151Z,0.47
2022-09-20T09:01:32.720Z,0.77
2022-09-20T09:04:18.493Z,0.73
2022-09-20T09:06:56.170Z,0.77
2022-09-20T09:09:37.685Z,0.80
2022-09-20T09:12:29.549Z,0.90
2022-09-20T09:15:24.272Z,1.00
2022-09-20T09:18:00.929Z,0.88
2022-09-20T09:20:47.521Z,1.10
2022-09-20T09:23:36.407Z,0.60
2022-09-20T09:26:24.239Z,0.65
2022-09-20T09:29:21.186Z,0.70
2022-09-20T09:31:58.331Z,0.77
2022-09-20T09:34:39.060Z,0.80
2022-09-20T09:37:29.247Z,0.60
2022-09-20T09:40:20.914Z,0.90
2022-09-20T09:43:00.622Z,0.80
2022-09-20T09:45:43.506Z,0.75
2022-09-20T09:48:27.802Z,0.68
2022-09-20T09:51:16.156Z,0.65
2022-09-20T09:53:55.530Z,0.57
2022-09-20T09:56:57.596Z,0.90
2022-09-20T10:00:06.419Z,0.90
2022-09-20T10:03:33.440Z,0.80
2022-09-20T10:06:24.841Z,1.20
2022-09-20T10:09:29.921Z,1.02
2022-09-20T10:12:34.622Z,0.70
2022-09-20T10:15:27.233Z,0.80
2022-09-20T10:18:43.002Z,0.70
2022-09-20T10:21:41.694Z,1.02
2022-09-20T10:24:42.322Z,1.50
2022-09-20T10:27:40.285Z,1.13
2022-09-20T10:30:23.243Z,0.77
2022-09-20T10:33:13.201Z,0.63
2022-09-20T10:36:10.391Z,0.63
2022-09-20T10:38:57.930Z,0.90
2022-09-20T10:42:03.035Z,0.80
2022-09-20T10:44:58.956Z,0.77
2022-09-20T10:47:40.901Z,0.70
2022-09-20T10:50:31.459Z,0.88
2022-09-20T10:53:29.090Z,0.80
2022-09-20T10:56:24.503Z,1.00
2022-09-20T10:59:36.191Z,1.00
2022-09-20T11:02:49.336Z,0.77
2022-09-20T11:05:56.739Z,1.00
2022-09-20T11:08:39.840Z,1.08
2022-09-20T11:11:25.289Z,1.20
2022-09-20T11:14:09.331Z,1.08
2022-09-20T11:16:54.364Z,1.30
2022-09-20T11:19:36.031Z,1.02
2022-09-20T11:22:19.211Z,0.80
2022-09-20T11:25:06.649Z,0.80
2022-09-20T11:27:48.185Z,1.35
2022-09-20T11:30:28.737Z,1.33
2022-09-20T11:33:16.817Z,1.20
2022-09-20T11:35:58.838Z,1.30
2022-09-20T11:38:44.358Z,1.13
2022-09-20T11:41:29.364Z,3.08
2022-09-20T11:44:14.326Z,1.40
2022-09-20T11:47:00.239Z,1.63
2022-09-20T11:49:52.243Z,1.10
2022-09-20T11:52:49.481Z,1.80
2022-09-20T11:55:42.833Z,1.30
2022-09-20T11:58:23.750Z,1.50
2022-09-20T12:01:03.373Z,1.60
2022-09-20T12:03:43.356Z,2.22
2022-09-20T12:06:35.274Z,1.58
2022-09-20T12:09:29.013Z,1.50
2022-09-20T12:12:30.955Z,1.42
2022-09-20T12:15:26.465Z,1.80
2022-09-20T12:18:37.753Z,1.80
2022-09-20T12:21:21.620Z,1.33
2022-09-20T12:24:27.015Z,1.60
2022-09-20T12:27:10.142Z,1.80
2022-09-20T12:30:20.652Z,1.80
2022-09-20T12:33:04.945Z,1.60
2022-09-20T12:36:21.666Z,1.67
2022-09-20T12:39:11.512Z,1.63
2022-09-20T12:41:53.793Z,1.80
2022-09-20T12:44:39.020Z,1.55
2022-09-20T12:47:26.831Z,1.70
2022-09-20T12:50:17.970Z,1.70
2022-09-20T12:53:02.061Z,1.75
2022-09-20T12:55:57.082Z,1.60
2022-09-20T12:58:45.732Z,1.90
2022-09-20T13:01:41.442Z,1.52
2022-09-20T13:04:59.928Z,1.75
2022-09-20T13:07:49.751Z,1.67
2022-09-20T13:10:35.683Z,1.90
2022-09-20T13:13:43.733Z,1.50
2022-09-20T13:16:26.597Z,1.65
2022-09-20T13:19:08.389Z,2.00
2022-09-20T13:21:58.771Z,1.40
2022-09-20T13:24:47.054Z,1.70
2022-09-20T13:27:30.363Z,2.03
2022-09-20T13:30:21.603Z,2.22
2022-09-20T13:32:59.943Z,1.90
2022-09-20T13:35:39.975Z,2.60
2022-09-20T13:38:26.063Z,2.65
2022-09-20T13:41:15.029Z,2.17
2022-09-20T13:43:55.904Z,2.05
2022-09-20T13:46:36.176Z,1.70
2022-09-20T13:49:23.993Z,2.10
2022-09-20T13:52:03.408Z,1.50
2022-09-20T13:54:49.691Z,1.52
2022-09-20T13:57:32.938Z,1.33
2022-09-20T14:00:17.109Z,1.60
2022-09-20T14:02:55.237Z,1.95
2022-09-20T14:05:35.633Z,1.75
2022-09-20T14:08:21.614Z,1.33
2022-09-20T14:11:16.588Z,1.70
2022-09-20T14:13:56.092Z,1.55
2022-09-20T14:16:38.577Z,1.70
2022-09-20T14:19:19.499Z,1.73
2022-09-20T14:21:58.338Z,1.77
2022-09-20T14:24:36.907Z,1.50
2022-09-20T14:27:23.506Z,1.85
2022-09-20T14:30:01.432Z,1.85
2022-09-20T14:32:55.768Z,1.85
2022-09-20T14:35:39.435Z,1.83
2022-09-20T14:38:26.843Z,1.83
2022-09-20T14:41:03.569Z,1.48
2022-09-20T14:43:44.479Z,1.58
2022-09-20T14:46:22.550Z,1.85
2022-09-20T14:49:24.120Z,2.47
2022-09-20T14:52:47.881Z,2.10
2022-09-20T14:55:33.767Z,1.90
2022-09-20T14:58:17.050Z,1.77
2022-09-20T15:01:02.076Z,1.58
2022-09-20T15:03:44.117Z,1.55
2022-09-20T15:06:25.859Z,1.95
2022-09-20T15:09:04.178Z,1.98
2022-09-20T15:11:41.332Z,2.10
2022-09-20T15:14:20.072Z,1.92
2022-09-20T15:17:01.726Z,1.75
2022-09-20T15:19:38.669Z,1.60
2022-09-20T15:22:15.870Z,1.85
2022-09-20T15:24:52.685Z,1.40
2022-09-20T15:27:29.906Z,1.75
2022-09-20T15:30:08.946Z,1.70
2022-09-20T15:32:49.238Z,1.83
2022-09-20T15:35:25.930Z,1.75
2022-09-20T15:38:02.899Z,1.77
2022-09-20T15:40:39.930Z,1.77
2022-09-20T15:43:21.989Z,1.80
2022-09-20T15:46:01.250Z,2.20
2022-09-20T15:48:42.126Z,5.60
2022-09-20T15:51:21.042Z,2.03
2022-09-20T15:54:06.700Z,3.60
2022-09-20T15:56:43.717Z,4.15
2022-09-20T15:59:23.457Z,3.67
2022-09-20T16:02:00.203Z,2.47
2022-09-20T16:04:40.289Z,2.30
2022-09-20T16:07:19.288Z,2.55
2022-09-20T16:09:57.231Z,1.92
2022-09-20T16:12:35.138Z,1.77
2022-09-20T16:15:14.447Z,2.07
